Norfork, AR

4:02 PM CDT on July 27, 2016 (GMT -0500)
Shady Grove | | Change Station

Elev 742 ft 36.26 °N, 92.37 °W | Updated 14 seconds ago

Clear
Clear
92.1 °F
Feels Like 99 °F
N
0.0
Wind Variable Wind from WNW
Gusts 0.0 mph

Today
High -- | Low -- °F
--% Chance of Precip.
Yesterday
High -- | Low -- °F
Precip. -- in
Pressure 29.88 in
Visibility 10.0 miles
Clouds Clear
Heat Index 99 °F
Dew Point 71 °F
Humidity 51%
Rainfall 0.00 in
Snow Depth Not available.
6:12 AM 8:18 PM
Last Quarter, 39% visible
METAR KBPK 272053Z AUTO 00000KT 10SM CLR 32/23 A2992 RMK AO2 SLP119 T03170228 56021
Pressure 29.88 in
Visibility 10.0 miles
Clouds Clear
Heat Index 99 °F
Dew Point 71 °F
Humidity 51%
Rainfall 0.00 in
Snow Depth Not available.
6:12 AM 8:18 PM
Last Quarter, 39% visible
METAR KBPK 272053Z AUTO 00000KT 10SM CLR 32/23 A2992 RMK AO2 SLP119 T03170228 56021

10-Day Weather Forecast

Almanac

Astronomy

Jul. 27, 2016 Rise Set
Actual Time
Civil Twilight
Nautical Twilight
Astronomical Twilight
Moon
Length of Visible Light
Length of Day
Tomorrow will be .
, % of the Moon is Illuminated

Today's Extremes

State Highs State Lows

Community

WunderPhotos

Upload Photos

1,927,936 photos uploaded!

WunderBlog® & News

Nearby

Air Quality

  Air Quality AQ Index Pollutant
Not available.

Snow Depth

Station Depth Elevation

Earthquake Activity

City Distance Mag. Time & Date
Minimum magnitude displayed is 2.5.

Coastal Water Temperatures

Place Temperature

Stations

Nearby Weather Stations

Station Location Temp. Windchill Dew Point Humidity Wind Precip. Elev Updated Type
                   

Watches & Warnings

There are currently no watches in effect.